ADDS METAR Data INFO
IDs: Format: Raw Decoded Include TAF

Data at: 1930 UTC 19 Jul 2018

KCKN 191915Z AUTO 00000KT 10SM CLR 24/20 A2982 RMK AO2 LTG DSNT NE AND SE
KCKN 191855Z AUTO 00000KT 10SM CLR 24/20 A2982 RMK AO2
KCKN 191835Z AUTO 02003KT 10SM CLR 23/19 A2982 RMK AO2
KCKN 191815Z AUTO 00000KT 10SM CLR 23/19 A2982 RMK AO2 LTG DSNT N
KCKN 191755Z AUTO 01004KT 10SM CLR 23/19 A2982 RMK AO2 LTG DSNT NE
KCKN 191735Z AUTO 01004KT 10SM CLR 23/19 A2982 RMK AO2 LTG DSNT W
KCKN 191715Z AUTO 00000KT 10SM CLR 23/19 A2982 RMK AO2
KCKN 191655Z AUTO 00000KT 10SM CLR 23/19 A2981 RMK AO2
KCKN 191635Z AUTO 00000KT 10SM CLR 23/19 A2981 RMK AO2
KCKN 191615Z AUTO 00000KT 10SM CLR 23/19 A2981 RMK AO2
KCKN 191555Z AUTO 00000KT 10SM CLR 22/19 A2981 RMK AO2
KCKN 191535Z AUTO 00000KT 10SM CLR 22/19 A2981 RMK AO2
KCKN 191515Z AUTO 00000KT 10SM CLR 22/19 A2982 RMK AO2 LTG DSNT NW
KCKN 191455Z AUTO 00000KT 10SM CLR 21/19 A2981 RMK AO2
KCKN 191435Z AUTO 00000KT 10SM SCT049 21/19 A2981 RMK AO2
KCKN 191415Z AUTO 00000KT 10SM SCT049 21/19 A2981 RMK AO2
KCKN 191355Z AUTO 00000KT 10SM SCT049 20/18 A2982 RMK AO2
KCKN 191335Z AUTO 03003KT 10SM SCT049 19/19 A2982 RMK AO2
KCKN 191315Z AUTO 00000KT 10SM BKN049 19/18 A2982 RMK AO2
KCKN 191255Z AUTO 00000KT 10SM SCT049 19/18 A2982 RMK AO2
KCKN 191235Z AUTO 01003KT 10SM CLR 19/18 A2981 RMK AO2 LTG DSNT NW
KCKN 191215Z AUTO 00000KT 10SM CLR 19/18 A2981 RMK AO2
KCKN 191155Z AUTO 00000KT 10SM CLR 20/18 A2981 RMK AO2
KCKN 191135Z AUTO 14003KT 10SM CLR 19/18 A2981 RMK AO2
KCKN 191115Z AUTO 13004KT 10SM CLR 19/18 A2981 RMK AO2
KCKN 191055Z AUTO 12004KT 10SM CLR 19/17 A2981 RMK AO2
KCKN 191035Z AUTO 11004KT 10SM CLR 19/17 A2982 RMK AO2
KCKN 191015Z AUTO 12003KT 10SM CLR 19/18 A2983 RMK AO2
KCKN 190955Z AUTO 11003KT 10SM CLR 19/18 A2983 RMK AO2
KCKN 190935Z AUTO 12004KT 10SM CLR 19/18 A2983 RMK AO2
KCKN 190915Z AUTO 00000KT 10SM CLR 19/18 A2984 RMK AO2
KCKN 190856Z AUTO 13005KT 10SM CLR 19/18 A2984 RMK AO2
KCKN 190835Z AUTO 13005KT 10SM CLR 19/18 A2985 RMK AO2
KCKN 190815Z AUTO 14005KT 10SM CLR 19/18 A2985 RMK AO2
KCKN 190755Z AUTO 14006KT 10SM CLR 19/18 A2986 RMK AO2
KCKN 190735Z AUTO 14006KT 10SM CLR 19/18 A2986 RMK AO2
KCKN 190715Z AUTO 13005KT 10SM CLR 19/18 A2986 RMK AO2
KCKN 190655Z AUTO 14005KT 10SM CLR 19/18 A2987 RMK AO2
KCKN 190635Z AUTO 14006KT 10SM CLR 19/17 A2987 RMK AO2
KCKN 190615Z AUTO 15005KT 10SM CLR 19/18 A2988 RMK AO2
KCKN 190555Z AUTO 15006KT 10SM CLR 19/18 A2988 RMK AO2
KCKN 190535Z AUTO 15007KT 10SM CLR 19/18 A2988 RMK AO2
KCKN 190515Z AUTO 15006KT 10SM CLR 19/18 A2988 RMK AO2
KCKN 190455Z AUTO 15006KT 10SM CLR 19/18 A2988 RMK AO2
KCKN 190435Z AUTO 15006KT 10SM CLR 19/18 A2988 RMK AO2
KCKN 190415Z AUTO 16006KT 10SM CLR 19/18 A2989 RMK AO2
KCKN 190355Z AUTO 15006KT 10SM CLR 20/18 A2989 RMK AO2
KCKN 190335Z AUTO 15005KT 10SM CLR 21/19 A2989 RMK AO2
KCKN 190315Z AUTO 16006KT 10SM CLR 21/19 A2990 RMK AO2
KCKN 190255Z AUTO 16006KT 10SM SCT085 21/19 A2990 RMK AO2
KCKN 190235Z AUTO 15005KT 10SM CLR 22/19 A2990 RMK AO2
KCKN 190216Z AUTO 15005KT 10SM CLR 23/19 A2990 RMK AO2
KCKN 190155Z AUTO 17005KT 10SM CLR 24/19 A2990 RMK AO2
KCKN 190135Z AUTO 18006KT 10SM CLR 24/19 A2990 RMK AO2
KCKN 190115Z AUTO 19007KT 10SM CLR 25/19 A2990 RMK AO2
KCKN 190055Z AUTO 20006KT 10SM CLR 26/19 A2991 RMK AO2
KCKN 190035Z AUTO 20011KT 10SM CLR 27/19 A2991 RMK AO2
KCKN 190015Z AUTO 19007KT 10SM CLR 27/19 A2992 RMK AO2
KCKN 182355Z AUTO 19009KT 10SM CLR 27/19 A2992 RMK AO2
KCKN 182335Z AUTO 20010KT 10SM SCT075 27/18 A2992 RMK AO2
KCKN 182315Z AUTO 19009KT 10SM SCT075 27/18 A2992 RMK AO2
KCKN 182255Z AUTO 19009KT 10SM SCT075 28/19 A2992 RMK AO2
KCKN 182235Z AUTO 19008KT 10SM CLR 28/19 A2992 RMK AO2
KCKN 182215Z AUTO 18006KT 10SM SCT075 28/19 A2993 RMK AO2
KCKN 182155Z AUTO 21009KT 10SM CLR 28/18 A2993 RMK AO2
KCKN 182135Z AUTO 20008KT 10SM CLR 28/19 A2994 RMK AO2
KCKN 182115Z AUTO 19009KT 10SM CLR 28/19 A2995 RMK AO2
KCKN 182055Z AUTO 21008KT 10SM CLR 28/19 A2995 RMK AO2
KCKN 182035Z AUTO 19012KT 10SM CLR 28/19 A2995 RMK AO2
KCKN 182015Z AUTO 21011KT 10SM CLR 28/19 A2996 RMK AO2
KCKN 181955Z AUTO 19009KT 10SM CLR 28/20 A2997 RMK AO2
KCKN 181935Z AUTO 20009KT 10SM CLR 27/19 A2997 RMK AO2
KCKN 181915Z AUTO 19009KT 10SM CLR 27/19 A2997 RMK AO2
KCKN 181855Z AUTO 21008KT 10SM CLR 27/19 A2997 RMK AO2
KCKN 181835Z AUTO 20009KT 10SM CLR 27/19 A2998 RMK AO2
KCKN 181815Z AUTO 19010KT 10SM CLR 27/18 A2999 RMK AO2
KCKN 181755Z AUTO 19011KT 10SM CLR 27/18 A2999 RMK AO2
KCKN 181735Z AUTO 17009KT 10SM CLR 27/18 A3000 RMK AO2
KCKN 181715Z AUTO 17010G14KT 10SM CLR 26/18 A3000 RMK AO2
KCKN 181655Z AUTO 19009KT 10SM CLR 26/18 A3001 RMK AO2
KCKN 181635Z AUTO 17009KT 10SM CLR 26/18 A3002 RMK AO2
KCKN 181615Z AUTO 17009KT 10SM CLR 25/18 A3002 RMK AO2
KCKN 181555Z AUTO 17009KT 10SM CLR 24/17 A3003 RMK AO2
KCKN 181535Z AUTO 15008KT 10SM CLR 24/17 A3003 RMK AO2
KCKN 181515Z AUTO 16008KT 10SM CLR 23/17 A3003 RMK AO2
KCKN 181455Z AUTO 16007KT 10SM CLR 23/17 A3004 RMK AO2
KCKN 181435Z AUTO 17006KT 10SM CLR 22/16 A3005 RMK AO2
KCKN 181415Z AUTO 17005KT 10SM CLR 22/16 A3005 RMK AO2
KCKN 181355Z AUTO 16005KT 10SM CLR 21/16 A3006 RMK AO2
KCKN 181335Z AUTO 15005KT 10SM CLR 19/15 A3006 RMK AO2
KCKN 181315Z AUTO 16006KT 10SM CLR 19/14 A3006 RMK AO2
KCKN 181255Z AUTO 15005KT 10SM CLR 18/15 A3006 RMK AO2
KCKN 181235Z AUTO 15006KT 10SM CLR 17/14 A3006 RMK AO2
KCKN 181215Z AUTO 15005KT 10SM CLR 16/13 RMK AO2
KCKN 181155Z AUTO 15004KT 10SM CLR 15/13 A3006 RMK AO2
KCKN 181135Z AUTO 15005KT 10SM CLR 14/13 A3006 RMK AO2
KCKN 181115Z AUTO 14005KT 10SM CLR 13/12 A3006 RMK AO2
KCKN 181055Z AUTO 13006KT 10SM CLR 13/12 A3007 RMK AO2
KCKN 181035Z AUTO 14004KT 10SM CLR 13/12 A3007 RMK AO2
KCKN 181015Z AUTO 14005KT 10SM CLR 13/12 A3008 RMK AO2
KCKN 180955Z AUTO 15005KT 10SM CLR 13/12 A3007 RMK AO2
KCKN 180935Z AUTO 15005KT 10SM CLR 13/11 A3008 RMK AO2
KCKN 180915Z AUTO 15005KT 10SM CLR 13/11 A3008 RMK AO2
KCKN 180855Z AUTO 14005KT 10SM CLR 13/11 A3008 RMK AO2
KCKN 180835Z AUTO 14005KT 10SM CLR 13/11 A3007 RMK AO2
KCKN 180815Z AUTO 15005KT 10SM CLR 12/11 A3007 RMK AO2
KCKN 180755Z AUTO 14005KT 10SM CLR 13/11 A3007 RMK AO2
KCKN 180735Z AUTO 14004KT 10SM CLR 13/11 A3008 RMK AO2